Latest Weather Observations for Falls Creek

IDV60801

Issued at 3:35 am EDT Saturday 25 October 2014 (issued every 30 minutes, with the page automatically refreshed every 10 minutes)

About weather observations | Map of weather stations | Latest weather observations for VIC | Other Formats
Station Details ID: 083084 Name: FALLS CREEK Lat: -36.87 Lon: 147.28 Height: 1765.0 m
Data from the previous 72 hours. | See also: Recent months at Falls Creek
Date/Time
EDT
Temp
°C
App
Temp
°C
Dew
Point
Rel
Hum
%
Delta-T
°C
Wind Press
QNH
hPa
Press
MSL
hPa
Rain
since 9 am
mm
Dir
 
Spd
km/h
Gust
km/h
Spd
kts
Gust
kts
25/03:30am 11.4 6.9 1.9 52 4.5 NNW 15 22 8 12 1020.3 1018.4 0.0
25/03:00am 11.3 6.2 3.1 57 4.0 NNW 19 28 10 15 1020.5 1018.5 0.0
25/02:30am 11.0 7.0 5.1 67 3.0 NNW 15 19 8 10 1020.6 1018.7 0.0
25/02:00am 11.3 7.8 5.6 68 2.9 NNW 13 20 7 11 1020.8 1018.9 0.0
25/01:30am 11.0 7.9 5.7 70 2.7 NNW 11 19 6 10 1021.2 1019.3 0.0
25/01:00am 11.2 7.7 5.5 68 2.9 NW 13 17 7 9 1021.5 1019.6 0.0
25/12:30am 11.3 8.2 5.6 68 2.9 NW 11 15 6 8 1021.5 1019.6 0.0
25/12:00am 11.5 8.1 6.0 69 2.8 WNW 13 20 7 11 1021.7 1019.8 0.0
 
Date/Time
EDT
Temp
°C
App
Temp
°C
Dew
Point
Rel
Hum
%
Delta-T
°C
Wind Press
QNH
hPa
Press
MSL
hPa
Rain
since 9 am
mm
Dir
 
Spd
km/h
Gust
km/h
Spd
kts
Gust
kts
24/11:30pm 11.2 7.1 6.1 71 2.6 WNW 17 22 9 12 1021.8 1019.9 0.0
24/11:00pm 11.3 7.2 6.4 72 2.5 WNW 17 22 9 12 1021.7 1019.8 0.0
24/10:30pm 11.2 6.7 6.3 72 2.5 W 19 22 10 12 1021.7 1019.8 0.0
24/10:00pm 11.2 7.1 6.3 72 2.5 WNW 17 24 9 13 1021.7 1019.8 0.0
24/09:30pm 11.4 7.2 5.5 67 3.0 WNW 17 24 9 13 1021.5 1019.6 0.0
24/09:00pm 11.7 7.0 5.1 64 3.3 WNW 19 22 10 12 1021.1 1019.2 0.0
24/08:30pm 11.8 7.1 5.2 64 3.4 WNW 19 26 10 14 1020.6 1018.7 0.0
24/08:00pm 12.4 6.9 5.8 64 3.4 NW 24 30 13 16 1020.1 1018.2 0.0
24/07:30pm 13.1 8.2 6.7 65 3.4 NW 22 30 12 16 1019.9 1017.9 0.0
24/07:00pm 13.5 8.4 6.1 61 3.9 NW 22 33 12 18 1019.6 1017.7 0.0
24/06:30pm 14.5 8.7 6.3 58 4.3 NNW 26 39 14 21 1019.0 1017.1 0.0
24/06:00pm 15.4 9.3 6.7 56 4.7 NNW 28 43 15 23 1019.2 1017.2 0.0
24/05:30pm 16.3 9.4 6.4 52 5.3 NW 32 50 17 27 1018.9 1016.9 0.0
24/05:24pm 16.5 10.5 7.2 54 5.1 NW 28 46 15 25 1018.9 1016.9 0.0
24/05:00pm 15.9 11.1 8.9 63 3.9 NW 24 41 13 22 1018.8 1016.8 0.0
24/04:30pm 16.6 10.4 9.3 62 4.1 NNW 32 44 17 24 1018.7 1016.7 0.0
24/04:00pm 14.7 8.4 9.1 69 3.1 NNW 32 43 17 23 1018.9 1016.9 0.0
24/03:30pm 14.4 8.5 9.0 70 3.0 NNW 30 43 16 23 1019.2 1017.2 0.0
24/03:13pm 16.0 9.8 9.2 64 3.8 NNW 32 50 17 27 1019.3 1017.3 0.0
24/03:00pm 15.4 8.9 8.9 65 3.6 N 33 50 18 27 1019.2 1017.2 0.0
24/02:55pm 15.5 9.5 8.7 64 3.8 NNW 30 48 16 26 1019.2 1017.2 0.0
24/02:30pm 14.9 8.8 8.4 65 3.6 NNW 30 43 16 23 1019.4 1017.4 0.0
24/02:01pm 16.5 10.1 8.5 59 4.5 NNW 32 50 17 27 1019.4 1017.4 0.0
24/02:00pm 16.2 9.7 8.9 62 4.1 NNW 33 50 18 27 1019.3 1017.3 0.0
24/01:30pm 15.7 7.5 8.2 61 4.2 NNW 41 61 22 33 1019.3 1017.3 0.0
24/01:00pm 16.0 9.6 8.5 61 4.2 NNW 32 50 17 27 1019.3 1017.3 0.0
24/12:30pm 15.5 9.1 8.5 63 3.9 NNW 32 50 17 27 1019.6 1017.7 0.0
24/12:00pm 15.7 10.0 8.2 61 4.1 N 28 46 15 25 1019.9 1017.9 0.0
24/11:30am 14.9 8.3 7.7 62 3.9 NNW 32 52 17 28 1020.0 1018.0 0.0
24/11:18am 14.5 7.8 8.0 65 3.6 NNW 33 52 18 28 1020.2 1018.3 0.0
24/11:00am 13.8 6.6 7.6 66 3.4 NNW 35 50 19 27 1020.3 1018.4 0.0
24/10:42am 13.7 6.9 7.5 66 3.4 NNW 33 52 18 28 1020.2 1018.3 0.0
24/10:30am 13.1 5.8 7.3 68 3.1 NNW 35 50 19 27 1020.3 1018.4 0.0
24/10:00am 12.4 4.2 6.7 68 3.0 NNW 39 54 21 29 1020.7 1018.8 0.0
24/09:30am 12.5 5.4 6.3 66 3.2 NNW 33 50 18 27 1020.8 1018.9 0.0
24/09:00am 12.3 4.3 5.9 65 3.3 NNW 37 50 20 27 1020.8 1018.9 -
24/08:30am 12.0 3.6 5.6 65 3.3 NNW 39 50 21 27 1020.8 1018.9 -
24/08:16am 12.0 4.7 5.6 65 3.3 NNW 33 54 18 29 1020.9 1019.0 -
24/08:00am 12.2 4.3 6.0 66 3.2 NNW 37 50 20 27 1021.2 1019.3 -
24/07:30am 11.4 3.4 5.5 67 3.0 NNW 37 54 20 29 1021.3 1019.4 -
24/07:00am 11.2 3.2 5.5 68 2.9 NNW 37 48 20 26 1021.1 1019.2 -
24/06:30am 11.3 2.5 5.4 67 3.0 NNW 41 59 22 32 1020.8 1018.9 -
24/06:29am 11.4 2.9 5.3 66 3.1 NNW 39 59 21 32 1020.8 1018.9 -
24/06:00am 11.4 4.1 5.5 67 3.0 NNW 33 48 18 26 1020.8 1018.9 -
24/05:30am 11.7 3.6 5.3 65 3.3 NNW 37 50 20 27 1020.6 1018.7 -
24/05:00am 12.1 3.6 5.3 63 3.5 NNW 39 56 21 30 1020.2 1018.3 -
24/04:46am 11.9 4.2 5.3 64 3.4 NNW 35 54 19 29 1020.3 1018.4 -
24/04:30am 12.1 4.0 5.3 63 3.5 NNW 37 52 20 28 1020.5 1018.5 -
24/04:09am 12.2 4.8 5.1 62 3.6 NNW 33 52 18 28 1020.7 1018.8 -
24/04:00am 12.4 4.6 5.1 61 3.7 NNW 35 50 19 27 1020.6 1018.7 -
24/03:50am 12.6 5.2 5.1 60 3.8 NNW 33 54 18 29 1020.7 1018.8 -
24/03:30am 12.4 5.3 5.3 62 3.6 NNW 32 46 17 25 1020.9 1019.0 -
24/03:00am 12.8 6.0 5.2 60 3.9 NNW 30 44 16 24 1021.2 1019.3 0.0
24/02:37am 12.8 6.5 5.5 61 3.8 NNW 28 46 15 25 1021.7 1019.8 -
24/02:30am 12.9 6.6 5.6 61 3.8 NNW 28 43 15 23 1021.9 1020.0 -
24/02:00am 13.2 6.5 5.6 60 3.9 N 30 43 16 23 1021.9 1020.0 -
24/01:30am 13.3 7.9 6.2 62 3.7 N 24 43 13 23 1022.5 1020.6 -
24/01:00am 13.5 8.1 6.4 62 3.7 NNW 24 33 13 18 1022.8 1021.0 -
24/12:30am 14.2 8.9 6.6 60 4.0 N 24 37 13 20 1023.1 1021.3 -
24/12:00am 14.3 8.3 7.1 62 3.9 N 28 43 15 23 1023.3 1021.5 -
 
Date/Time
EDT
Temp
°C
App
Temp
°C
Dew
Point
Rel
Hum
%
Delta-T
°C
Wind Press
QNH
hPa
Press
MSL
hPa
Rain
since 9 am
mm
Dir
 
Spd
km/h
Gust
km/h
Spd
kts
Gust
kts
23/11:55pm 14.5 8.4 6.8 60 4.1 N 28 43 15 23 1023.1 1021.3 -
23/11:30pm 13.9 9.6 7.0 63 3.7 N 19 24 10 13 1023.3 1021.5 -
23/11:00pm 13.7 10.7 7.7 67 3.2 N 13 19 7 10 1023.4 1021.6 -
23/10:30pm 12.7 9.8 8.2 74 2.5 N 13 17 7 9 1023.4 1021.6 -
23/10:00pm 12.6 10.2 8.7 77 2.1 NNE 11 15 6 8 1023.6 1021.8 -
23/09:30pm 9.9 8.6 9.9 100 0.0 SE 7 11 4 6 1023.4 1021.6 -
23/09:00pm 10.3 8.7 10.3 100 0.0 SSE 9 13 5 7 1023.3 1021.5 -
23/08:30pm 10.8 9.7 10.8 100 0.0 SSE 7 11 4 6 1023.2 1021.4 -
23/08:00pm 11.3 9.2 11.3 100 0.0 SE 13 15 7 8 1023.1 1021.3 -
23/07:30pm 12.4 10.3 11.1 92 0.7 ESE 13 17 7 9 1023.0 1021.1 -
23/07:00pm 15.4 12.8 5.9 53 5.0 N 9 13 5 7 1022.7 1020.9 -
23/06:30pm 16.3 13.7 6.2 51 5.4 NNW 9 13 5 7 1022.6 1020.8 -
23/06:00pm 16.6 12.0 5.6 48 5.8 N 19 28 10 15 1022.6 1020.8 -
23/05:30pm 16.7 12.0 5.9 49 5.8 N 20 28 11 15 1022.6 1020.8 -
23/05:00pm 17.5 13.5 6.7 49 5.9 N 17 24 9 13 1022.8 1021.0 -
23/04:30pm 17.6 - 7.9 53 5.4 - - - - - 1022.7 1020.9 -
23/04:00pm 18.3 - 7.1 48 6.1 - - - - - 1022.7 1020.9 -
23/03:30pm 19.1 - 7.5 47 6.5 - - - - - 1023.0 1021.1 0.0
23/03:00pm 18.6 - 8.0 50 5.9 - - - - - 1023.1 1021.3 0.0
23/02:30pm 19.3 - 8.3 49 6.2 - - - - - 1023.4 1021.6 0.0
23/02:00pm 18.2 - 5.4 43 6.8 - - - - - 1023.8 1022.0 0.0
23/01:30pm 18.7 - 6.2 44 6.8 - - - - - 1024.2 1022.4 0.0
23/01:00pm 18.6 - 7.1 47 6.3 - - - - - 1024.3 1022.5 0.0
23/12:30pm 18.3 - 6.5 46 6.4 - - - - - 1024.5 1022.7 0.0
23/12:00pm 18.0 - 5.9 45 6.5 - - - - - 1024.6 1022.9 0.0
23/11:30am 17.9 - 5.5 44 6.6 - - - - - 1024.9 1023.1 0.0
23/11:00am 17.5 - 6.4 48 6.0 - - - - - 1025.0 1023.2 0.0
23/10:30am 17.2 - 5.2 45 6.3 - - - - - 1025.0 1023.2 0.0
23/10:00am 16.3 - 6.7 53 5.2 - - - - - 1024.9 1023.1 0.0
23/09:30am 16.0 - 6.7 54 5.0 - - - - - 1025.0 1023.2 0.0
23/09:00am 15.4 - 5.9 53 5.0 - - - - - 1024.7 1023.0 0.0
23/08:30am 14.5 - 5.8 56 4.6 - - - - - 1024.7 1023.0 0.0
23/08:00am 13.9 - 5.8 58 4.2 - - - - - 1024.5 1022.7 0.0
23/07:30am 12.9 - 5.6 61 3.8 - - - - - 1024.4 1022.6 0.0
23/07:00am 12.5 - 5.2 61 3.7 - - - - - 1024.3 1022.5 0.0
23/06:30am 11.9 - 4.4 60 3.8 - - - - - 1024.2 1022.4 0.0
23/06:00am 11.8 - 4.3 60 3.7 - - - - - 1024.0 1022.2 0.0
23/05:30am 11.2 - 4.9 65 3.2 - - - - - 1024.0 1022.2 0.0
23/05:00am 12.0 - 4.0 58 4.0 - - - - - 1024.0 1022.2 0.0
23/04:30am 12.1 - 4.3 59 3.9 - - - - - 1023.9 1022.1 0.0
23/04:00am 12.4 - 3.6 55 4.3 - - - - - 1023.8 1022.0 0.0
23/03:30am 12.4 - 3.9 56 4.2 - - - - - 1023.9 1022.1 0.0
23/03:00am 12.3 - 4.3 58 4.0 - - - - - 1024.3 1022.5 0.0
23/02:30am 11.4 - 7.5 77 2.1 - - - - - 1024.6 1022.9 0.0
23/02:00am 11.1 - 8.3 83 1.5 - - - - - 1024.6 1022.9 0.0
23/01:30am 11.4 - 8.4 82 1.6 - - - - - 1024.9 1023.1 0.0
23/01:00am 13.6 - 3.7 51 4.9 - - - - - 1024.6 1022.9 0.0
23/12:30am 13.4 - 4.3 54 4.6 - - - - - 1024.7 1023.0 0.0
23/12:00am 13.1 - 4.5 56 4.3 - - - - - 1025.1 1023.4 0.0
 
Date/Time
EDT
Temp
°C
App
Temp
°C
Dew
Point
Rel
Hum
%
Delta-T
°C
Wind Press
QNH
hPa
Press
MSL
hPa
Rain
since 9 am
mm
Dir
 
Spd
km/h
Gust
km/h
Spd
kts
Gust
kts
22/11:30pm 13.8 - 4.7 54 4.7 - - - - - 1025.6 1023.9 0.0
22/11:00pm 13.6 - 5.0 56 4.4 - - - - - 1025.7 1024.0 0.0
22/10:30pm 13.9 - 4.5 53 4.8 - - - - - 1025.8 1024.1 0.0
22/10:00pm 14.0 - 4.0 51 5.0 - - - - - 1025.8 1024.1 0.0
22/09:30pm 13.5 - 4.1 53 4.7 - - - - - 1025.8 1024.1 0.0
22/09:00pm 13.0 - 4.7 57 4.2 - - - - - 1025.8 1024.1 0.0
22/08:30pm 12.7 - 5.8 63 3.6 - - - - - 1025.3 1023.6 0.0
22/08:00pm 12.6 - 7.5 71 2.7 - - - - - 1025.1 1023.4 0.0
22/07:30pm 13.0 - 7.2 68 3.1 - - - - - 1025.1 1023.4 0.0
22/07:00pm 14.3 - 9.5 73 2.7 - - - - - 1025.1 1023.4 0.0
22/06:30pm 14.8 - 9.0 68 3.2 - - - - - 1024.9 1023.1 0.0
22/06:00pm 15.5 - 9.2 66 3.5 - - - - - 1025.0 1023.2 0.0
22/05:30pm 15.5 - 8.7 64 3.8 - - - - - 1025.0 1023.2 0.0
22/05:00pm 15.8 - 8.5 62 4.1 - - - - - 1025.2 1023.5 0.0
22/04:30pm 17.2 - 8.4 56 4.9 - - - - - 1025.3 1023.6 0.0
22/04:00pm 17.3 - 6.2 48 6.0 - - - - - 1025.3 1023.6 0.0
22/03:30pm 17.5 - 4.5 42 6.8 - - - - - 1025.5 1023.7 0.0
22/03:00pm 17.0 - 6.2 49 5.8 - - - - - 1025.7 1024.0 0.0
22/02:30pm 16.9 - 6.4 50 5.7 - - - - - 1025.9 1024.2 0.0
22/02:00pm 16.1 - 8.3 60 4.3 - - - - - 1026.3 1024.6 0.0
22/01:30pm 16.1 - 8.3 60 4.3 - - - - - 1026.5 1024.8 0.0
22/01:00pm 15.0 - 7.8 62 3.9 - - - - - 1026.5 1024.8 0.0
22/12:30pm 14.7 - 8.2 65 3.6 - - - - - 1026.8 1025.1 0.0
22/12:00pm 14.5 - 8.2 66 3.5 - - - - - 1027.1 1025.5 0.0
22/11:30am 13.9 - 8.3 69 3.1 - - - - - 1027.2 1025.6 0.0
22/11:00am 13.1 - 8.2 72 2.7 - - - - - 1027.4 1025.7 0.0
22/10:30am 13.4 - 7.8 69 3.0 - - - - - 1027.6 1026.0 0.0
22/10:00am 12.1 - 7.2 72 2.6 - - - - - 1027.7 1026.1 0.0
22/09:30am 11.2 - 6.9 75 2.3 - - - - - 1027.8 1026.2 0.0
22/09:00am 11.3 - 6.2 71 2.6 - - - - - 1027.7 1026.1 0.0
22/08:30am 10.6 - 5.8 72 2.5 - - - - - 1027.6 1026.0 0.0
22/08:00am 10.1 - 5.1 71 2.5 - - - - - 1027.7 1026.1 0.0
22/07:30am 9.5 - 4.1 69 2.6 - - - - - 1027.5 1025.8 0.0
22/07:00am 9.0 - 3.0 66 2.8 - - - - - 1027.4 1025.7 0.0
22/06:30am 8.6 - 2.6 66 2.8 - - - - - 1027.1 1025.5 0.0
22/06:00am 9.0 - 2.3 63 3.1 - - - - - 1026.9 1025.2 0.0
22/05:30am 9.2 - 3.8 69 2.6 - - - - - 1026.5 1024.8 0.0
22/05:00am 9.1 - 2.2 62 3.2 - - - - - 1026.5 1024.8 0.0
22/04:30am 9.0 - 1.0 57 3.6 - - - - - 1026.7 1025.0 0.0
22/04:00am 8.9 - -0.1 53 4.0 - - - - - 1027.0 1025.3 0.0

Other Formats:

Comma delimited format used in spreadsheet applications
http://www.bom.gov.au/fwo/IDV60801/IDV60801.94903.axf

JavaScript Object Notation format (JSON) in row-major order
http://www.bom.gov.au/fwo/IDV60801/IDV60801.94903.json